Time;durP1;ratioP1;P1;durP2;ratioP2;P2;SDS_P1;SDS_P2;PMS_P1;PMS_P2;Temp;Humidity;BMP_temperature;BMP_pressure;BME280_temperature;BME280_humidity;BME280_pressure;Samples;Min_cycle;Max_cycle;Signal;HPM_P1;HPM_P2
2023/12/08 00:00:07;;;;;;;23.47;9.20;;;5.80;98.70;;;;;;5053664;28;20483;-73
2023/12/08 00:02:33;;;;;;;14.93;9.20;;;5.70;98.30;;;;;;5052791;28;20475;-74
2023/12/08 00:05:00;;;;;;;14.60;9.10;;;5.70;98.10;;;;;;5052744;28;21070;-74
2023/12/08 00:07:27;;;;;;;12.60;8.53;;;5.60;98.10;;;;;;5051382;28;20479;-73
2023/12/08 00:09:55;;;;;;;16.30;9.20;;;5.60;98.30;;;;;;5053183;28;20475;-74
2023/12/08 00:12:22;;;;;;;15.60;10.70;;;5.50;97.50;;;;;;5048993;28;21657;-74
2023/12/08 00:14:50;;;;;;;12.40;7.73;;;5.30;98.20;;;;;;5051740;28;20856;-74
2023/12/08 00:17:17;;;;;;;12.17;8.10;;;5.30;97.80;;;;;;5049213;28;20475;-74
2023/12/08 00:19:44;;;;;;;14.50;9.40;;;5.20;97.40;;;;;;5051033;28;20478;-75
2023/12/08 00:22:11;;;;;;;18.50;8.83;;;5.10;97.70;;;;;;5049273;28;20466;-75
2023/12/08 00:24:38;;;;;;;12.20;7.50;;;5.00;97.60;;;;;;5050904;28;20483;-75
2023/12/08 00:27:07;;;;;;;14.00;8.60;;;5.10;97.90;;;;;;5051272;28;20590;-76
2023/12/08 00:29:34;;;;;;;15.60;9.37;;;5.10;97.60;;;;;;5048360;28;20478;-74
2023/12/08 00:32:01;;;;;;;46.07;10.03;;;5.20;98.20;;;;;;5045373;28;20528;-75
2023/12/08 00:34:28;;;;;;;22.00;9.00;;;5.30;97.60;;;;;;5037890;28;21057;-75
2023/12/08 00:36:55;;;;;;;13.13;8.57;;;5.20;97.60;;;;;;5041210;28;20622;-74
2023/12/08 00:39:22;;;;;;;13.87;9.63;;;5.20;97.70;;;;;;5043785;28;20482;-73
2023/12/08 00:41:49;;;;;;;9.77;7.70;;;5.30;98.00;;;;;;5040913;28;21647;-75
2023/12/08 00:44:17;;;;;;;22.23;9.60;;;5.40;98.30;;;;;;5041427;28;20471;-75
2023/12/08 00:46:44;;;;;;;16.30;10.60;;;5.40;98.60;;;;;;5048780;28;20948;-76
2023/12/08 00:49:11;;;;;;;16.73;10.60;;;5.50;98.10;;;;;;5043672;28;20537;-74
2023/12/08 00:51:38;;;;;;;18.17;11.17;;;5.60;98.30;;;;;;5037207;28;20537;-74
2023/12/08 00:54:05;;;;;;;15.07;9.20;;;5.50;97.60;;;;;;5043367;28;20479;-75
2023/12/08 00:56:32;;;;;;;13.53;9.07;;;5.50;97.60;;;;;;5048119;28;20478;-74
2023/12/08 00:58:59;;;;;;;20.53;10.03;;;5.50;97.40;;;;;;5046699;28;20557;-73
2023/12/08 01:01:27;;;;;;;14.53;9.67;;;5.50;97.40;;;;;;5046352;28;20512;-72
2023/12/08 01:03:54;;;;;;;19.53;9.83;;;5.40;97.30;;;;;;5028923;28;20544;-75
2023/12/08 01:06:21;;;;;;;29.57;14.00;;;5.50;97.50;;;;;;5049087;28;20509;-75
2023/12/08 01:08:48;;;;;;;33.93;13.17;;;5.60;97.40;;;;;;5045316;28;20529;-73
2023/12/08 01:11:14;;;;;;;19.20;11.10;;;5.60;97.70;;;;;;5042690;28;21108;-73
2023/12/08 01:13:41;;;;;;;15.50;9.90;;;5.60;97.80;;;;;;5054105;28;20581;-76
2023/12/08 01:16:08;;;;;;;24.57;10.10;;;5.60;97.60;;;;;;5041344;28;20525;-75
2023/12/08 01:18:37;;;;;;;13.57;9.50;;;5.70;97.80;;;;;;5047513;28;20467;-73
2023/12/08 01:21:04;;;;;;;12.07;8.13;;;5.70;97.70;;;;;;5050972;28;20471;-76
2023/12/08 01:23:31;;;;;;;13.33;9.27;;;5.70;97.80;;;;;;5040391;28;20487;-74
2023/12/08 01:25:57;;;;;;;16.47;9.80;;;5.80;98.00;;;;;;5041155;28;20482;-77
2023/12/08 01:28:24;;;;;;;18.63;9.03;;;5.80;98.50;;;;;;5043145;28;20541;-74
2023/12/08 01:30:51;;;;;;;14.63;9.63;;;5.70;97.50;;;;;;5047960;28;20525;-75
2023/12/08 01:33:18;;;;;;;14.57;8.50;;;5.80;97.70;;;;;;5048735;28;20514;-72
2023/12/08 01:35:46;;;;;;;12.00;9.20;;;5.80;97.90;;;;;;5048776;28;21035;-73
2023/12/08 01:38:13;;;;;;;34.17;10.10;;;5.80;98.00;;;;;;5043852;28;20479;-73
2023/12/08 01:40:40;;;;;;;10.30;7.97;;;5.80;97.90;;;;;;5045538;28;21315;-72
2023/12/08 01:43:11;;;;;;;20.10;9.80;;;5.90;98.30;;;;;;5047649;28;21035;-75
2023/12/08 01:45:39;;;;;;;16.73;9.40;;;5.90;98.40;;;;;;5036899;28;20559;-73
2023/12/08 01:48:07;;;;;;;20.57;10.43;;;5.80;98.00;;;;;;5045630;28;20479;-75
2023/12/08 01:50:34;;;;;;;27.37;10.40;;;5.70;98.00;;;;;;5035808;28;20480;-76
2023/12/08 01:53:03;;;;;;;14.57;8.93;;;5.80;98.20;;;;;;5045616;28;20557;-75
2023/12/08 01:55:31;;;;;;;16.17;10.40;;;5.80;98.30;;;;;;5045364;28;20523;-75
2023/12/08 01:57:59;;;;;;;15.80;9.50;;;5.70;98.70;;;;;;5015765;28;20536;-75
2023/12/08 02:00:27;;;;;;;10.27;8.43;;;5.70;98.90;;;;;;5034969;28;20474;-74
2023/12/08 02:02:54;;;;;;;14.50;8.00;;;5.70;98.80;;;;;;5059900;28;20466;-74
2023/12/08 02:05:22;;;;;;;13.90;8.93;;;5.50;99.40;;;;;;5058379;28;20491;-77
2023/12/08 02:07:50;;;;;;;16.13;8.90;;;5.50;99.80;;;;;;5059689;28;20482;-77
2023/12/08 02:10:18;;;;;;;12.50;9.83;;;5.50;99.80;;;;;;5058131;28;20568;-75
2023/12/08 02:12:45;;;;;;;15.93;9.60;;;5.60;99.90;;;;;;5060309;28;20558;-75
2023/12/08 02:15:13;;;;;;;17.80;9.80;;;5.70;99.90;;;;;;5058480;28;20487;-73
2023/12/08 02:17:41;;;;;;;18.73;10.20;;;5.70;99.90;;;;;;5060550;28;20511;-76
2023/12/08 02:20:10;;;;;;;15.63;10.10;;;5.60;99.90;;;;;;5049544;28;20487;-77
2023/12/08 02:22:37;;;;;;;17.10;11.07;;;5.50;99.90;;;;;;5058937;28;20544;-75
2023/12/08 02:25:06;;;;;;;20.00;11.60;;;5.30;99.90;;;;;;5061023;28;20530;-78
2023/12/08 02:27:33;;;;;;;19.37;11.20;;;5.30;99.90;;;;;;5059581;28;20506;-79
2023/12/08 02:30:00;;;;;;;14.10;9.93;;;5.40;99.90;;;;;;5048828;28;20475;-78
2023/12/08 02:32:34;;;;;;;19.30;10.73;;;5.50;99.90;;;;;;5060084;28;20474;-78
2023/12/08 02:35:05;;;;;;;19.77;12.83;;;5.60;99.90;;;;;;5032508;28;21050;-79
2023/12/08 02:37:35;;;;;;;16.13;11.20;;;5.60;99.90;;;;;;5032200;28;20540;-80
2023/12/08 02:40:06;;;;;;;18.50;11.80;;;5.70;99.90;;;;;;5032072;28;20467;-78
2023/12/08 02:42:33;;;;;;;21.10;12.70;;;5.70;99.90;;;;;;5021014;28;20475;-80
2023/12/08 02:45:00;;;;;;;42.40;14.00;;;5.80;99.90;;;;;;5059706;28;20478;-76
2023/12/08 02:47:27;;;;;;;21.40;12.70;;;5.80;99.90;;;;;;5047536;28;22374;-78
2023/12/08 02:49:54;;;;;;;27.20;13.17;;;5.90;99.90;;;;;;5057752;28;21061;-80
2023/12/08 02:52:21;;;;;;;24.57;11.53;;;5.90;99.90;;;;;;5059809;28;20544;-78
2023/12/08 02:54:48;;;;;;;21.80;13.80;;;5.90;99.90;;;;;;5060275;28;20904;-76
2023/12/08 02:57:16;;;;;;;25.50;14.70;;;5.90;99.90;;;;;;5058425;28;20852;-80
2023/12/08 02:59:43;;;;;;;30.27;15.63;;;5.90;99.90;;;;;;5060465;28;20827;-80
2023/12/08 03:02:09;;;;;;;23.87;14.67;;;5.90;99.90;;;;;;5058440;28;20479;-80
2023/12/08 03:04:36;;;;;;;24.87;15.37;;;5.80;99.90;;;;;;5060280;28;20475;-78
2023/12/08 03:07:04;;;;;;;31.83;15.00;;;5.70;99.90;;;;;;5059678;28;20467;-78
2023/12/08 03:09:30;;;;;;;23.37;14.53;;;5.70;99.90;;;;;;5060633;28;20471;-76
2023/12/08 03:11:57;;;;;;;22.90;13.67;;;5.70;99.90;;;;;;5060269;28;20885;-77
2023/12/08 03:14:26;;;;;;;20.67;13.47;;;5.70;99.90;;;;;;5059193;28;20537;-78
2023/12/08 03:16:52;;;;;;;22.53;13.80;;;5.60;99.90;;;;;;5059494;28;20548;-77
2023/12/08 03:19:19;;;;;;;50.10;15.47;;;5.70;99.90;;;;;;5037989;28;22143;-78
2023/12/08 03:21:46;;;;;;;29.20;15.97;;;5.70;99.90;;;;;;5043570;28;20488;-78
2023/12/08 03:24:13;;;;;;;25.93;15.67;;;5.70;99.90;;;;;;5056353;28;20564;-77
2023/12/08 03:26:40;;;;;;;28.00;15.50;;;5.70;99.90;;;;;;5023605;28;20912;-78
2023/12/08 03:29:07;;;;;;;27.10;14.80;;;5.70;99.90;;;;;;5057979;28;21622;-78
2023/12/08 03:31:35;;;;;;;28.27;13.30;;;5.70;99.90;;;;;;5056495;28;20582;-79
2023/12/08 03:34:02;;;;;;;30.23;14.73;;;5.80;99.90;;;;;;5055935;28;20483;-79
2023/12/08 03:36:29;;;;;;;24.70;13.37;;;5.80;99.90;;;;;;5056878;28;20478;-78
2023/12/08 03:38:55;;;;;;;29.43;14.57;;;5.80;99.90;;;;;;5059028;28;20724;-79
2023/12/08 03:41:22;;;;;;;23.93;13.70;;;5.80;99.90;;;;;;5057169;28;20540;-77
2023/12/08 03:43:49;;;;;;;23.27;13.60;;;5.80;99.90;;;;;;5058081;28;20482;-76
2023/12/08 03:46:16;;;;;;;32.20;14.60;;;5.80;99.90;;;;;;5054137;28;20486;-79
2023/12/08 03:48:45;;;;;;;29.47;15.73;;;5.80;99.90;;;;;;5059830;28;20503;-78
2023/12/08 03:51:12;;;;;;;22.07;15.60;;;5.80;99.90;;;;;;5047815;28;20490;-77
2023/12/08 03:53:40;;;;;;;34.13;14.37;;;;;;;;;;5058781;28;21042;-77
2023/12/08 03:56:08;;;;;;;23.50;14.80;;;5.70;99.90;;;;;;5057512;28;20962;-77
2023/12/08 03:58:34;;;;;;;33.10;15.00;;;5.70;99.90;;;;;;5058958;28;20479;-78
2023/12/08 04:01:01;;;;;;;28.03;13.50;;;5.70;99.90;;;;;;5057511;28;20577;-78
2023/12/08 04:03:28;;;;;;;25.03;13.57;;;5.70;99.90;;;;;;5058010;28;20544;-77
2023/12/08 04:05:56;;;;;;;24.20;14.00;;;5.60;99.90;;;;;;5059924;28;20494;-78
2023/12/08 04:08:23;;;;;;;35.67;14.10;;;5.50;99.90;;;;;;5058627;28;20663;-77
2023/12/08 04:10:50;;;;;;;31.13;15.60;;;5.30;99.90;;;;;;5048774;28;20480;-76
2023/12/08 04:13:17;;;;;;;27.60;14.70;;;5.30;99.90;;;;;;5054119;28;20472;-76
2023/12/08 04:15:44;;;;;;;22.10;14.20;;;5.20;99.90;;;;;;5062641;28;20543;-76
2023/12/08 04:18:11;;;;;;;29.33;19.73;;;5.00;99.90;;;;;;5060995;28;20909;-82
2023/12/08 04:20:38;;;;;;;30.20;19.10;;;4.60;99.90;;;;;;5051968;28;21012;-78
2023/12/08 04:23:06;;;;;;;32.70;18.83;;;4.50;99.90;;;;;;5055682;28;20997;-76
2023/12/08 04:25:34;;;;;;;30.73;17.80;;;4.50;99.90;;;;;;5054563;28;20483;-78
2023/12/08 04:28:01;;;;;;;31.37;19.67;;;4.20;99.90;;;;;;5049960;28;20584;-79
2023/12/08 04:30:27;;;;;;;29.20;16.93;;;4.20;99.90;;;;;;5060212;28;20856;-75
2023/12/08 04:32:55;;;;;;;36.73;22.13;;;4.10;99.90;;;;;;5061646;28;20490;-77
2023/12/08 04:35:23;;;;;;;37.73;18.60;;;4.10;99.90;;;;;;5063044;28;20503;-78
2023/12/08 04:37:50;;;;;;;32.97;20.13;;;4.10;99.90;;;;;;5062838;28;20540;-77
2023/12/08 04:40:18;;;;;;;33.20;19.13;;;4.10;99.90;;;;;;5061931;28;20471;-74
2023/12/08 04:42:45;;;;;;;34.43;17.23;;;4.10;99.90;;;;;;5062812;28;20540;-77
2023/12/08 04:45:14;;;;;;;27.63;16.67;;;4.20;99.90;;;;;;5062280;28;20475;-76
2023/12/08 04:47:41;;;;;;;31.80;17.20;;;4.30;99.90;;;;;;5062232;28;20554;-77
2023/12/08 04:50:08;;;;;;;39.90;18.20;;;4.40;99.90;;;;;;5061312;28;20872;-77
2023/12/08 04:52:35;;;;;;;30.90;14.40;;;4.40;99.90;;;;;;5061701;28;20544;-76
2023/12/08 04:55:04;;;;;;;29.30;16.90;;;4.40;99.90;;;;;;5063006;28;20907;-77
2023/12/08 04:57:32;;;;;;;29.70;17.40;;;4.60;99.90;;;;;;5058072;28;20478;-76
2023/12/08 04:59:59;;;;;;;33.80;16.73;;;4.70;99.90;;;;;;5061121;28;20548;-77
2023/12/08 05:02:26;;;;;;;32.00;18.47;;;4.80;99.90;;;;;;5060445;28;20574;-76
2023/12/08 05:04:53;;;;;;;26.03;16.50;;;4.80;99.90;;;;;;5062168;28;20471;-77
2023/12/08 05:07:20;;;;;;;30.93;17.27;;;4.80;99.90;;;;;;5061009;28;20482;-77
2023/12/08 05:09:46;;;;;;;39.03;16.70;;;4.70;99.90;;;;;;5060328;28;20944;-76
2023/12/08 05:12:13;;;;;;;26.40;16.83;;;4.70;99.90;;;;;;5052288;28;20498;-76
2023/12/08 05:14:41;;;;;;;31.23;17.47;;;4.60;99.90;;;;;;5063051;28;20487;-77
2023/12/08 05:17:08;;;;;;;28.20;17.80;;;4.70;99.90;;;;;;5062434;28;20532;-76
2023/12/08 05:19:35;;;;;;;37.57;17.80;;;4.80;99.90;;;;;;5062013;28;20487;-76
2023/12/08 05:22:03;;;;;;;26.63;15.17;;;4.80;99.90;;;;;;5062196;28;20881;-78
2023/12/08 05:24:30;;;;;;;29.10;16.77;;;4.80;99.90;;;;;;5062326;28;20529;-76
2023/12/08 05:26:58;;;;;;;31.67;18.73;;;4.60;99.90;;;;;;5057344;28;20478;-77
2023/12/08 05:29:25;;;;;;;34.80;19.93;;;4.60;99.90;;;;;;5058059;28;20513;-77
2023/12/08 05:31:53;;;;;;;33.23;18.70;;;4.40;99.90;;;;;;5060782;28;20911;-76
2023/12/08 05:34:21;;;;;;;33.93;17.27;;;4.40;99.90;;;;;;5062213;28;20491;-78
2023/12/08 05:36:48;;;;;;;33.10;18.40;;;4.50;99.90;;;;;;5062691;28;20548;-76
2023/12/08 05:39:16;;;;;;;35.50;18.00;;;4.70;99.90;;;;;;5062149;28;21009;-78
2023/12/08 05:41:43;;;;;;;39.60;18.97;;;4.90;99.90;;;;;;5050743;28;20945;-78
2023/12/08 05:44:09;;;;;;;33.90;17.13;;;4.90;99.90;;;;;;5060535;28;20488;-78
2023/12/08 05:46:36;;;;;;;30.50;17.03;;;5.00;99.90;;;;;;5048560;28;20479;-78
2023/12/08 05:49:04;;;;;;;31.90;19.07;;;4.90;99.90;;;;;;5062061;28;20486;-78
2023/12/08 05:51:32;;;;;;;31.90;19.27;;;;;;;;;;5061012;28;20547;-78
2023/12/08 05:53:59;;;;;;;40.60;19.33;;;4.70;99.90;;;;;;5062455;28;20482;-77
2023/12/08 05:56:26;;;;;;;28.03;16.70;;;4.70;99.90;;;;;;5061962;28;20482;-76
2023/12/08 05:58:53;;;;;;;29.10;16.33;;;4.70;99.90;;;;;;5061565;28;20475;-77
2023/12/08 06:01:21;;;;;;;28.37;16.47;;;4.70;99.90;;;;;;5049618;28;20542;-76
2023/12/08 06:03:50;;;;;;;28.33;16.27;;;4.70;99.90;;;;;;5034295;28;20475;-75
2023/12/08 06:06:18;;;;;;;29.67;17.43;;;4.70;99.90;;;;;;5062365;28;20471;-76
2023/12/08 06:08:45;;;;;;;30.73;17.70;;;4.70;99.90;;;;;;5062010;28;20474;-76
2023/12/08 06:11:12;;;;;;;39.83;18.97;;;4.60;99.90;;;;;;5059036;28;20475;-76
2023/12/08 06:13:39;;;;;;;40.60;18.20;;;4.60;99.90;;;;;;5060739;28;20553;-76
2023/12/08 06:16:06;;;;;;;36.17;17.97;;;4.60;99.90;;;;;;5060846;28;20506;-74
2023/12/08 06:18:33;;;;;;;45.30;17.87;;;4.60;99.90;;;;;;5060235;28;20525;-77
2023/12/08 06:21:00;;;;;;;29.20;15.60;;;4.70;99.90;;;;;;5060993;28;20475;-76
2023/12/08 06:23:31;;;;;;;35.23;17.60;;;4.70;99.90;;;;;;5061819;28;20544;-75
2023/12/08 06:25:58;;;;;;;30.63;15.30;;;4.70;99.90;;;;;;5061207;28;20511;-76
2023/12/08 06:28:25;;;;;;;37.30;17.30;;;4.70;99.90;;;;;;5060355;28;20486;-76
2023/12/08 06:30:52;;;;;;;34.27;18.47;;;4.70;99.90;;;;;;5060660;28;21071;-75
2023/12/08 06:33:19;;;;;;;33.83;16.97;;;;;;;;;;5059804;28;20869;-75
2023/12/08 06:35:46;;;;;;;32.27;16.53;;;4.80;99.90;;;;;;5059975;28;20899;-76
2023/12/08 06:38:13;;;;;;;33.37;16.33;;;4.80;99.90;;;;;;5058492;28;20580;-75
2023/12/08 06:40:42;;;;;;;29.23;15.57;;;4.90;99.90;;;;;;5060409;28;20729;-76
2023/12/08 06:43:09;;;;;;;32.17;16.97;;;4.90;99.90;;;;;;5059100;28;20483;-75
2023/12/08 06:45:37;;;;;;;40.60;17.40;;;;;;;;;;5060053;28;20475;-77
2023/12/08 06:48:04;;;;;;;31.53;16.40;;;4.90;99.90;;;;;;5060664;28;21027;-77
2023/12/08 06:50:32;;;;;;;50.27;18.43;;;4.90;99.90;;;;;;5059904;28;20475;-76
2023/12/08 06:52:59;;;;;;;40.13;17.37;;;4.90;99.90;;;;;;5059303;28;20479;-76
2023/12/08 06:55:26;;;;;;;39.20;18.83;;;4.80;99.90;;;;;;5048283;28;20529;-77
2023/12/08 06:57:54;;;;;;;34.23;17.93;;;4.80;99.90;;;;;;5060058;28;20891;-77
2023/12/08 07:00:21;;;;;;;27.80;16.83;;;;;;;;;;5059222;28;20483;-76
2023/12/08 07:02:48;;;;;;;30.67;14.90;;;4.80;99.90;;;;;;5056203;28;20471;-75
2023/12/08 07:05:19;;;;;;;27.73;14.80;;;4.90;99.90;;;;;;5060379;28;21025;-77
2023/12/08 07:07:46;;;;;;;36.57;16.97;;;4.90;99.90;;;;;;5059978;28;20467;-78
2023/12/08 07:10:14;;;;;;;41.73;16.77;;;5.00;99.90;;;;;;5058904;28;20899;-78
2023/12/08 07:12:42;;;;;;;37.60;19.67;;;4.90;99.90;;;;;;5058652;28;20482;-78
2023/12/08 07:15:11;;;;;;;40.73;22.93;;;4.90;99.90;;;;;;5057088;28;20562;-76
2023/12/08 07:17:38;;;;;;;44.53;22.87;;;4.90;99.90;;;;;;5041335;28;20475;-80
2023/12/08 07:20:09;;;;;;;39.10;22.40;;;4.80;99.90;;;;;;5059504;28;20475;-82
2023/12/08 07:22:36;;;;;;;34.43;18.20;;;4.90;99.90;;;;;;5058816;28;20489;-81
2023/12/08 07:25:04;;;;;;;47.10;21.10;;;4.90;99.90;;;;;;5047765;28;20473;-80
2023/12/08 07:27:31;;;;;;;44.20;22.63;;;4.90;99.90;;;;;;5056267;28;20544;-80
2023/12/08 07:29:58;;;;;;;41.37;23.73;;;4.90;99.90;;;;;;5059070;28;20471;-79
2023/12/08 07:32:26;;;;;;;41.93;22.47;;;5.00;99.90;;;;;;5048151;28;20528;-80
2023/12/08 07:34:53;;;;;;;50.83;20.53;;;5.10;99.90;;;;;;5059786;28;20482;-79
2023/12/08 07:37:20;;;;;;;46.60;25.40;;;5.10;99.90;;;;;;5032897;28;20517;-79
2023/12/08 07:39:47;;;;;;;41.70;21.93;;;5.10;99.90;;;;;;5059393;28;20887;-81
2023/12/08 07:42:15;;;;;;;31.23;19.37;;;5.20;99.90;;;;;;5058279;28;20483;-80
2023/12/08 07:44:42;;;;;;;37.13;18.27;;;5.20;99.90;;;;;;5047055;28;20474;-79
2023/12/08 07:47:09;;;;;;;35.30;15.87;;;5.20;99.90;;;;;;5058770;28;20532;-81
2023/12/08 07:49:37;;;;;;;41.87;24.03;;;5.30;99.90;;;;;;5043762;28;20474;-80
2023/12/08 07:52:05;;;;;;;49.43;24.97;;;5.20;99.90;;;;;;5056193;28;20495;-84
2023/12/08 07:54:32;;;;;;;57.57;26.53;;;5.20;99.90;;;;;;5057751;28;20536;-81
2023/12/08 07:57:00;;;;;;;47.60;23.93;;;5.30;99.90;;;;;;5058889;28;20759;-82
2023/12/08 07:59:26;;;;;;;49.80;20.37;;;5.30;99.90;;;;;;5035844;28;20509;-81
2023/12/08 08:01:53;;;;;;;51.50;24.43;;;5.40;99.90;;;;;;5057028;28;20536;-83
2023/12/08 08:04:20;;;;;;;40.07;23.30;;;5.40;99.90;;;;;;5052461;28;20540;-81
2023/12/08 08:06:48;;;;;;;39.83;21.70;;;5.30;99.90;;;;;;5059093;28;20483;-79
2023/12/08 08:09:17;;;;;;;39.97;20.90;;;5.40;99.90;;;;;;5054446;28;20496;-82
2023/12/08 08:11:44;;;;;;;49.33;23.80;;;5.40;99.90;;;;;;5058142;28;20909;-82
2023/12/08 08:14:12;;;;;;;41.37;21.53;;;5.50;99.90;;;;;;5047525;28;20536;-81
2023/12/08 08:16:38;;;;;;;40.83;23.80;;;5.40;99.90;;;;;;5059362;28;20471;-81
2023/12/08 08:19:05;;;;;;;36.90;20.03;;;5.40;99.90;;;;;;5058689;28;20938;-82
2023/12/08 08:21:32;;;;;;;33.77;18.90;;;;;;;;;;5058458;28;20481;-77
2023/12/08 08:24:01;;;;;;;36.87;18.80;;;5.60;99.90;;;;;;5047025;28;20540;-80
2023/12/08 08:26:28;;;;;;;60.13;19.43;;;5.70;99.90;;;;;;5056236;28;21016;-79
2023/12/08 08:28:55;;;;;;;45.50;19.30;;;;;;;;;;5026011;28;20529;-78
2023/12/08 08:31:22;;;;;;;59.27;18.80;;;5.70;99.90;;;;;;5056688;28;20475;-79
2023/12/08 08:33:49;;;;;;;35.17;19.70;;;5.70;99.90;;;;;;5057627;28;20499;-78
2023/12/08 08:36:16;;;;;;;57.00;21.17;;;5.70;99.90;;;;;;5055569;28;20471;-80
2023/12/08 08:38:43;;;;;;;34.60;18.13;;;5.80;99.90;;;;;;5057254;28;20494;-78
2023/12/08 08:41:12;;;;;;;44.53;19.43;;;5.80;99.90;;;;;;5044299;28;20617;-76
2023/12/08 08:43:39;;;;;;;43.13;17.93;;;5.90;99.90;;;;;;5044219;28;20494;-79
2023/12/08 08:46:06;;;;;;;44.20;19.60;;;5.90;99.90;;;;;;5054911;28;20505;-81
2023/12/08 08:48:33;;;;;;;36.80;16.30;;;5.90;99.90;;;;;;5058829;28;20483;-81
2023/12/08 08:51:00;;;;;;;33.67;17.90;;;6.00;99.90;;;;;;5057541;28;20471;-78
2023/12/08 08:53:29;;;;;;;39.00;21.13;;;6.00;99.90;;;;;;5053862;28;20751;-82
2023/12/08 08:55:55;;;;;;;28.10;15.10;;;6.10;99.90;;;;;;5057449;28;20483;-83
2023/12/08 08:58:24;;;;;;;26.17;15.67;;;6.20;99.90;;;;;;5056355;28;20478;-80
2023/12/08 09:00:51;;;;;;;25.07;15.27;;;6.20;99.90;;;;;;5060609;28;20850;-81
2023/12/08 09:03:18;;;;;;;20.40;11.30;;;6.30;99.90;;;;;;5060424;28;20536;-81
2023/12/08 09:05:45;;;;;;;33.60;14.30;;;6.40;99.90;;;;;;5060327;28;20514;-80
2023/12/08 09:08:13;;;;;;;27.37;15.90;;;6.40;99.90;;;;;;5049953;28;20560;-79
2023/12/08 09:10:44;;;;;;;31.73;16.60;;;6.40;99.90;;;;;;5061097;28;20933;-80
2023/12/08 09:13:11;;;;;;;21.10;13.27;;;6.40;99.90;;;;;;5061453;28;20520;-79
2023/12/08 09:15:40;;;;;;;17.73;11.63;;;6.50;99.90;;;;;;5061942;28;21019;-80
2023/12/08 09:18:07;;;;;;;24.47;13.97;;;6.60;99.90;;;;;;5061582;28;20985;-79
2023/12/08 09:20:34;;;;;;;27.13;8.67;;;6.70;99.90;;;;;;5060288;28;20486;-82
2023/12/08 09:23:01;;;;;;;14.50;9.73;;;6.70;99.90;;;;;;5061342;28;20539;-77
2023/12/08 09:25:28;;;;;;;16.90;8.80;;;6.80;99.90;;;;;;5045210;28;20836;-83
2023/12/08 09:27:55;;;;;;;13.40;8.10;;;6.90;99.90;;;;;;5063262;28;20473;-83
2023/12/08 09:30:21;;;;;;;22.20;11.00;;;6.90;99.90;;;;;;5050405;28;20490;-80
2023/12/08 09:32:50;;;;;;;22.10;14.50;;;6.90;99.90;;;;;;5061086;28;20799;-80
2023/12/08 09:35:18;;;;;;;19.90;13.83;;;7.00;99.90;;;;;;5059355;28;20753;-79
2023/12/08 09:37:45;;;;;;;32.63;13.30;;;;;;;;;;5057192;28;20560;-81
2023/12/08 09:40:15;;;;;;;23.47;10.70;;;7.00;99.90;;;;;;5058397;28;20540;-80
2023/12/08 09:42:46;;;;;;;22.93;10.47;;;7.10;99.90;;;;;;5061578;28;20479;-81
2023/12/08 09:45:13;;;;;;;25.27;13.13;;;7.00;99.90;;;;;;5061431;28;20471;-83
2023/12/08 09:47:42;;;;;;;18.10;9.90;;;7.20;99.90;;;;;;5061229;28;20485;-81
2023/12/08 09:50:12;;;;;;;15.37;9.50;;;7.10;99.90;;;;;;5057275;28;20489;-79
2023/12/08 09:52:40;;;;;;;28.70;12.90;;;7.30;99.90;;;;;;5061675;28;20578;-80
2023/12/08 09:55:08;;;;;;;12.43;7.83;;;7.30;99.90;;;;;;5057984;28;20514;-81
2023/12/08 09:57:35;;;;;;;16.30;8.43;;;7.40;99.90;;;;;;5048724;28;20467;-80
2023/12/08 10:00:11;;;;;;;17.43;8.63;;;7.40;99.90;;;;;;5059936;28;20497;-79
2023/12/08 10:02:37;;;;;;;11.37;8.43;;;7.40;99.90;;;;;;5032975;28;20562;-82
2023/12/08 10:05:06;;;;;;;14.10;6.70;;;7.50;99.90;;;;;;5062528;28;20483;-82
2023/12/08 10:07:36;;;;;;;17.03;8.60;;;7.60;99.90;;;;;;5060480;28;20459;-81
2023/12/08 10:10:03;;;;;;;13.57;7.97;;;7.60;99.90;;;;;;5056928;28;20487;-81
2023/12/08 10:12:30;;;;;;;20.13;9.47;;;7.70;99.90;;;;;;5058421;28;20537;-80
2023/12/08 10:14:58;;;;;;;11.53;8.83;;;7.70;99.90;;;;;;5050615;28;20471;-81
2023/12/08 10:17:26;;;;;;;16.37;9.10;;;7.70;99.90;;;;;;5059163;28;20525;-79
2023/12/08 10:20:09;;;;;;;15.57;9.00;;;7.80;99.90;;;;;;5053548;28;20529;-79
2023/12/08 10:22:47;;;;;;;13.53;7.33;;;7.70;99.90;;;;;;5059111;28;21207;-76
2023/12/08 10:25:16;;;;;;;10.83;6.53;;;7.80;99.90;;;;;;5040193;28;20841;-80
2023/12/08 10:27:43;;;;;;;7.83;5.73;;;7.90;99.90;;;;;;5048675;28;20537;-76
2023/12/08 10:30:11;;;;;;;6.33;5.30;;;7.90;99.90;;;;;;5059131;28;20475;-78
2023/12/08 10:32:39;;;;;;;8.43;5.57;;;8.00;99.90;;;;;;5058551;28;20483;-78
2023/12/08 10:35:06;;;;;;;7.40;4.87;;;8.10;99.90;;;;;;5057197;28;20508;-79
2023/12/08 10:37:33;;;;;;;5.50;4.63;;;8.10;99.90;;;;;;5059063;28;20560;-77
2023/12/08 10:40:02;;;;;;;33.43;6.20;;;8.10;99.90;;;;;;5046325;28;20490;-79
2023/12/08 10:42:29;;;;;;;8.50;6.00;;;8.20;99.90;;;;;;5054884;28;20486;-77
2023/12/08 10:44:55;;;;;;;6.13;4.30;;;8.20;99.90;;;;;;5057522;28;20492;-79
2023/12/08 10:47:23;;;;;;;13.00;3.97;;;8.30;99.90;;;;;;5049224;28;20961;-77
2023/12/08 10:49:52;;;;;;;13.23;4.27;;;8.40;99.90;;;;;;5055664;28;20487;-77
2023/12/08 10:52:21;;;;;;;4.30;3.90;;;8.40;99.90;;;;;;5047427;28;20558;-77
2023/12/08 10:54:48;;;;;;;3.03;2.67;;;8.30;99.90;;;;;;5055883;28;20479;-77
2023/12/08 10:57:18;;;;;;;5.30;2.60;;;8.30;99.90;;;;;;5060225;28;20483;-79
2023/12/08 10:59:46;;;;;;;11.93;2.80;;;8.30;99.90;;;;;;5060147;28;20922;-74
2023/12/08 11:02:21;;;;;;;4.70;3.93;;;8.30;99.90;;;;;;5059094;28;20939;-78
2023/12/08 11:04:54;;;;;;;3.13;2.47;;;8.30;99.90;;;;;;5048034;28;20541;-75
2023/12/08 11:07:26;;;;;;;13.90;3.67;;;;;;;;;;5057266;28;20474;-78
2023/12/08 11:09:54;;;;;;;3.70;3.40;;;8.30;99.90;;;;;;5058504;28;20479;-79
2023/12/08 11:12:28;;;;;;;4.43;3.80;;;8.20;99.90;;;;;;5020309;28;20925;-80
2023/12/08 11:15:03;;;;;;;5.30;2.90;;;8.40;99.90;;;;;;5040544;28;20492;-81
2023/12/08 11:17:37;;;;;;;9.63;4.00;;;8.40;99.90;;;;;;5050727;28;20549;-80
2023/12/08 11:20:05;;;;;;;5.67;3.43;;;8.40;99.90;;;;;;5052230;28;20541;-79
2023/12/08 11:22:33;;;;;;;6.60;3.87;;;8.30;99.90;;;;;;5046953;28;20977;-81
2023/12/08 11:25:06;;;;;;;3.20;2.90;;;8.40;99.90;;;;;;5060767;28;20474;-79
2023/12/08 11:27:44;;;;;;;4.67;2.90;;;8.40;99.90;;;;;;5057763;28;20973;-78
2023/12/08 11:30:19;;;;;;;10.03;2.90;;;8.50;99.90;;;;;;5053941;28;20494;-79
2023/12/08 11:32:56;;;;;;;18.30;3.63;;;8.50;99.90;;;;;;5056562;28;20490;-79
2023/12/08 11:35:23;;;;;;;9.37;3.30;;;8.60;99.90;;;;;;5047502;28;20520;-78
2023/12/08 11:37:50;;;;;;;4.97;4.37;;;8.50;99.90;;;;;;5060147;28;20478;-78
2023/12/08 11:40:18;;;;;;;6.80;3.70;;;8.60;99.90;;;;;;5055024;28;20544;-80
2023/12/08 11:42:50;;;;;;;9.63;3.57;;;8.60;99.90;;;;;;5060006;28;21034;-79
2023/12/08 11:45:19;;;;;;;3.73;3.30;;;8.60;99.90;;;;;;5047987;28;20482;-80
2023/12/08 11:47:46;;;;;;;4.03;3.73;;;8.70;99.90;;;;;;5058693;28;20548;-80
2023/12/08 11:50:13;;;;;;;12.53;4.77;;;8.70;99.90;;;;;;5058151;28;20525;-79
2023/12/08 11:52:43;;;;;;;4.63;3.93;;;8.70;99.90;;;;;;5054728;28;20989;-81
2023/12/08 11:55:12;;;;;;;3.87;3.50;;;8.80;99.90;;;;;;5059157;28;20575;-81
2023/12/08 11:57:41;;;;;;;11.23;3.90;;;8.80;99.90;;;;;;5058057;28;21077;-81
2023/12/08 12:00:13;;;;;;;6.57;3.43;;;8.80;99.90;;;;;;5054679;28;20532;-80
2023/12/08 12:02:42;;;;;;;14.30;3.87;;;8.80;99.90;;;;;;5058499;28;20848;-78
2023/12/08 12:05:10;;;;;;;5.33;3.97;;;8.90;99.90;;;;;;5059251;28;20478;-80
2023/12/08 12:07:38;;;;;;;4.40;4.10;;;9.00;99.90;;;;;;5059844;28;20864;-83
2023/12/08 12:10:08;;;;;;;8.27;3.90;;;9.10;99.90;;;;;;5061906;28;20849;-82
2023/12/08 12:12:38;;;;;;;8.40;4.80;;;9.00;99.90;;;;;;5060485;28;20486;-80
2023/12/08 12:15:06;;;;;;;4.50;4.10;;;9.00;99.90;;;;;;5058099;28;20989;-81
2023/12/08 12:17:35;;;;;;;4.70;4.03;;;9.00;99.90;;;;;;5046034;28;20478;-80
2023/12/08 12:20:02;;;;;;;4.83;4.33;;;9.10;99.90;;;;;;5053162;28;20514;-83
2023/12/08 12:22:29;;;;;;;4.50;4.07;;;9.10;99.90;;;;;;5038085;28;20883;-78
2023/12/08 12:24:56;;;;;;;4.80;3.80;;;9.10;99.90;;;;;;5048115;28;20524;-79
2023/12/08 12:27:23;;;;;;;8.37;4.60;;;9.00;99.90;;;;;;5056327;28;22005;-82
2023/12/08 12:29:50;;;;;;;12.60;5.40;;;;;;;;;;5055135;28;20487;-78
2023/12/08 12:32:17;;;;;;;6.53;5.33;;;9.00;99.90;;;;;;5057381;28;20636;-81
2023/12/08 12:34:45;;;;;;;5.07;4.60;;;9.00;99.90;;;;;;5044633;28;20874;-80
2023/12/08 12:37:13;;;;;;;14.23;5.70;;;9.00;99.90;;;;;;5052664;28;20552;-82
2023/12/08 12:39:39;;;;;;;7.17;4.60;;;9.10;99.90;;;;;;5060381;28;21666;-78
2023/12/08 12:42:07;;;;;;;6.63;4.70;;;9.10;99.90;;;;;;5060590;28;20540;-82
2023/12/08 12:44:41;;;;;;;7.63;5.87;;;9.20;99.90;;;;;;5063286;28;20467;-83
2023/12/08 12:47:10;;;;;;;6.53;5.50;;;9.10;99.90;;;;;;5051482;28;20475;-81